Terminal Aerodrome Forecast
Issued by NWS Bismarck, ND

Home | Current Version | Previous Version | Graphics & Text | Print | Product List | Glossary On
Versions: 1 2 3 4 5 6 7 8 9 10 11 12 13 14 15 16 17 18
000
FTUS43 KBIS 232300
TAFBIS
TAF
KBIS 232333Z 2400/2424 28008KT P6SM SKC
     FM241700 30010KT P6SM -RASN OVC035
     FM242000 33012KT 4SM -RA BR OVC012=

USA.gov is the U.S. government's official web portal to all federal, state and local government web resources and services.